sensor_id;sensor_type;location;lat;lon;timestamp;P1;durP1;ratioP1;P2;durP2;ratioP2
47772;SDS011;33534;51.028;13.716;2024-03-08T00:00:17;106.03;;;74.88;;
47772;SDS011;33534;51.028;13.716;2024-03-08T00:02:43;108.43;;;73.57;;
47772;SDS011;33534;51.028;13.716;2024-03-08T00:05:11;100.30;;;72.53;;
47772;SDS011;33534;51.028;13.716;2024-03-08T00:07:38;105.30;;;73.85;;
47772;SDS011;33534;51.028;13.716;2024-03-08T00:10:04;101.22;;;72.80;;
47772;SDS011;33534;51.028;13.716;2024-03-08T00:12:40;102.10;;;71.28;;
47772;SDS011;33534;51.028;13.716;2024-03-08T00:15:10;98.95;;;70.38;;
47772;SDS011;33534;51.028;13.716;2024-03-08T00:17:39;99.00;;;70.95;;
47772;SDS011;33534;51.028;13.716;2024-03-08T00:20:05;98.13;;;69.22;;
47772;SDS011;33534;51.028;13.716;2024-03-08T00:22:37;100.35;;;69.65;;
47772;SDS011;33534;51.028;13.716;2024-03-08T00:25:03;97.43;;;69.35;;
47772;SDS011;33534;51.028;13.716;2024-03-08T00:27:30;96.63;;;69.85;;
47772;SDS011;33534;51.028;13.716;2024-03-08T00:29:56;92.55;;;66.10;;
47772;SDS011;33534;51.028;13.716;2024-03-08T00:32:22;91.93;;;67.00;;
47772;SDS011;33534;51.028;13.716;2024-03-08T00:34:50;95.78;;;67.10;;
47772;SDS011;33534;51.028;13.716;2024-03-08T00:37:19;96.53;;;66.43;;
47772;SDS011;33534;51.028;13.716;2024-03-08T00:39:45;91.68;;;65.82;;
47772;SDS011;33534;51.028;13.716;2024-03-08T00:42:11;89.78;;;64.78;;
47772;SDS011;33534;51.028;13.716;2024-03-08T00:44:37;92.90;;;65.03;;
47772;SDS011;33534;51.028;13.716;2024-03-08T00:47:02;88.72;;;63.10;;
47772;SDS011;33534;51.028;13.716;2024-03-08T00:49:29;89.00;;;64.50;;
47772;SDS011;33534;51.028;13.716;2024-03-08T00:51:54;91.22;;;60.38;;
47772;SDS011;33534;51.028;13.716;2024-03-08T00:54:20;88.05;;;63.45;;
47772;SDS011;33534;51.028;13.716;2024-03-08T00:56:45;85.18;;;60.33;;
47772;SDS011;33534;51.028;13.716;2024-03-08T00:59:11;88.75;;;60.78;;
47772;SDS011;33534;51.028;13.716;2024-03-08T01:01:39;90.47;;;60.65;;
47772;SDS011;33534;51.028;13.716;2024-03-08T01:04:05;102.65;;;59.85;;
47772;SDS011;33534;51.028;13.716;2024-03-08T01:06:32;89.63;;;59.33;;
47772;SDS011;33534;51.028;13.716;2024-03-08T01:08:58;93.95;;;60.40;;
47772;SDS011;33534;51.028;13.716;2024-03-08T01:11:24;90.78;;;58.72;;
47772;SDS011;33534;51.028;13.716;2024-03-08T01:13:50;91.22;;;57.63;;
47772;SDS011;33534;51.028;13.716;2024-03-08T01:16:15;87.40;;;59.63;;
47772;SDS011;33534;51.028;13.716;2024-03-08T01:18:46;82.53;;;57.60;;
47772;SDS011;33534;51.028;13.716;2024-03-08T01:21:12;82.55;;;57.53;;
47772;SDS011;33534;51.028;13.716;2024-03-08T01:23:38;79.45;;;54.20;;
47772;SDS011;33534;51.028;13.716;2024-03-08T01:26:03;82.00;;;57.20;;
47772;SDS011;33534;51.028;13.716;2024-03-08T01:28:29;80.18;;;55.78;;
47772;SDS011;33534;51.028;13.716;2024-03-08T01:30:55;83.60;;;54.08;;
47772;SDS011;33534;51.028;13.716;2024-03-08T01:33:24;79.38;;;55.20;;
47772;SDS011;33534;51.028;13.716;2024-03-08T01:35:54;80.93;;;53.80;;
47772;SDS011;33534;51.028;13.716;2024-03-08T01:38:20;77.30;;;53.92;;
47772;SDS011;33534;51.028;13.716;2024-03-08T01:40:49;80.57;;;54.70;;
47772;SDS011;33534;51.028;13.716;2024-03-08T01:45:51;75.78;;;52.53;;
47772;SDS011;33534;51.028;13.716;2024-03-08T01:48:18;77.43;;;53.30;;
47772;SDS011;33534;51.028;13.716;2024-03-08T01:50:47;74.30;;;51.97;;
47772;SDS011;33534;51.028;13.716;2024-03-08T01:53:12;78.38;;;53.85;;
47772;SDS011;33534;51.028;13.716;2024-03-08T01:55:40;75.28;;;50.58;;
47772;SDS011;33534;51.028;13.716;2024-03-08T01:58:06;70.85;;;49.78;;
47772;SDS011;33534;51.028;13.716;2024-03-08T02:00:34;74.57;;;50.47;;
47772;SDS011;33534;51.028;13.716;2024-03-08T02:03:01;72.22;;;50.78;;
47772;SDS011;33534;51.028;13.716;2024-03-08T02:05:27;71.40;;;49.08;;
47772;SDS011;33534;51.028;13.716;2024-03-08T02:07:53;67.60;;;48.33;;
47772;SDS011;33534;51.028;13.716;2024-03-08T02:10:20;67.68;;;48.42;;
47772;SDS011;33534;51.028;13.716;2024-03-08T02:12:47;70.75;;;50.45;;
47772;SDS011;33534;51.028;13.716;2024-03-08T02:15:13;68.55;;;46.88;;
47772;SDS011;33534;51.028;13.716;2024-03-08T02:17:40;69.53;;;48.28;;
47772;SDS011;33534;51.028;13.716;2024-03-08T02:20:06;70.55;;;48.75;;
47772;SDS011;33534;51.028;13.716;2024-03-08T02:22:34;66.10;;;47.55;;
47772;SDS011;33534;51.028;13.716;2024-03-08T02:24:59;64.25;;;47.08;;
47772;SDS011;33534;51.028;13.716;2024-03-08T02:27:27;65.07;;;46.42;;
47772;SDS011;33534;51.028;13.716;2024-03-08T02:29:55;62.75;;;45.97;;
47772;SDS011;33534;51.028;13.716;2024-03-08T02:32:21;60.72;;;43.85;;
47772;SDS011;33534;51.028;13.716;2024-03-08T02:34:48;61.85;;;45.08;;
47772;SDS011;33534;51.028;13.716;2024-03-08T02:37:14;61.60;;;45.35;;
47772;SDS011;33534;51.028;13.716;2024-03-08T02:39:40;66.60;;;45.40;;
47772;SDS011;33534;51.028;13.716;2024-03-08T02:42:06;66.47;;;45.40;;
47772;SDS011;33534;51.028;13.716;2024-03-08T02:44:32;59.08;;;42.83;;
47772;SDS011;33534;51.028;13.716;2024-03-08T02:46:59;61.03;;;44.72;;
47772;SDS011;33534;51.028;13.716;2024-03-08T02:49:25;57.47;;;42.20;;
47772;SDS011;33534;51.028;13.716;2024-03-08T02:51:51;61.05;;;42.17;;
47772;SDS011;33534;51.028;13.716;2024-03-08T02:54:18;64.90;;;41.53;;
47772;SDS011;33534;51.028;13.716;2024-03-08T02:56:44;58.05;;;41.50;;
47772;SDS011;33534;51.028;13.716;2024-03-08T02:59:11;57.38;;;41.30;;
47772;SDS011;33534;51.028;13.716;2024-03-08T03:01:38;59.40;;;41.28;;
47772;SDS011;33534;51.028;13.716;2024-03-08T03:04:04;57.45;;;41.17;;
47772;SDS011;33534;51.028;13.716;2024-03-08T03:06:30;55.00;;;39.88;;
47772;SDS011;33534;51.028;13.716;2024-03-08T03:08:56;58.10;;;41.58;;
47772;SDS011;33534;51.028;13.716;2024-03-08T03:11:22;54.58;;;39.33;;
47772;SDS011;33534;51.028;13.716;2024-03-08T03:13:48;56.40;;;40.15;;
47772;SDS011;33534;51.028;13.716;2024-03-08T03:16:20;58.70;;;40.40;;
47772;SDS011;33534;51.028;13.716;2024-03-08T03:18:46;55.90;;;39.50;;
47772;SDS011;33534;51.028;13.716;2024-03-08T03:21:12;56.22;;;39.95;;
47772;SDS011;33534;51.028;13.716;2024-03-08T03:23:38;54.40;;;38.65;;
47772;SDS011;33534;51.028;13.716;2024-03-08T03:26:07;51.50;;;37.22;;
47772;SDS011;33534;51.028;13.716;2024-03-08T03:28:35;52.17;;;39.15;;
47772;SDS011;33534;51.028;13.716;2024-03-08T03:31:03;53.70;;;38.13;;
47772;SDS011;33534;51.028;13.716;2024-03-08T03:33:28;50.75;;;36.15;;
47772;SDS011;33534;51.028;13.716;2024-03-08T03:35:54;51.58;;;37.80;;
47772;SDS011;33534;51.028;13.716;2024-03-08T03:38:20;50.45;;;36.25;;
47772;SDS011;33534;51.028;13.716;2024-03-08T03:40:48;53.35;;;37.35;;
47772;SDS011;33534;51.028;13.716;2024-03-08T03:43:17;49.80;;;36.17;;
47772;SDS011;33534;51.028;13.716;2024-03-08T03:45:43;49.20;;;35.55;;
47772;SDS011;33534;51.028;13.716;2024-03-08T03:48:08;52.10;;;36.20;;
47772;SDS011;33534;51.028;13.716;2024-03-08T03:50:34;55.20;;;36.45;;
47772;SDS011;33534;51.028;13.716;2024-03-08T03:53:00;48.70;;;35.15;;
47772;SDS011;33534;51.028;13.716;2024-03-08T03:55:27;49.75;;;35.13;;
47772;SDS011;33534;51.028;13.716;2024-03-08T03:57:53;51.88;;;34.00;;
47772;SDS011;33534;51.028;13.716;2024-03-08T04:00:19;51.35;;;35.35;;
47772;SDS011;33534;51.028;13.716;2024-03-08T04:02:45;50.92;;;35.35;;
47772;SDS011;33534;51.028;13.716;2024-03-08T04:05:11;50.17;;;33.15;;
47772;SDS011;33534;51.028;13.716;2024-03-08T04:07:37;53.45;;;34.60;;
47772;SDS011;33534;51.028;13.716;2024-03-08T04:10:04;45.00;;;32.53;;
47772;SDS011;33534;51.028;13.716;2024-03-08T04:12:34;69.28;;;33.10;;
47772;SDS011;33534;51.028;13.716;2024-03-08T04:15:00;44.30;;;30.80;;
47772;SDS011;33534;51.028;13.716;2024-03-08T04:17:26;46.10;;;32.85;;
47772;SDS011;33534;51.028;13.716;2024-03-08T04:19:52;43.58;;;30.80;;
47772;SDS011;33534;51.028;13.716;2024-03-08T04:22:18;45.92;;;31.75;;
47772;SDS011;33534;51.028;13.716;2024-03-08T04:24:44;44.25;;;31.48;;
47772;SDS011;33534;51.028;13.716;2024-03-08T04:27:10;50.20;;;32.40;;
47772;SDS011;33534;51.028;13.716;2024-03-08T04:29:36;41.03;;;30.52;;
47772;SDS011;33534;51.028;13.716;2024-03-08T04:32:03;46.58;;;30.15;;
47772;SDS011;33534;51.028;13.716;2024-03-08T04:34:30;43.85;;;30.92;;
47772;SDS011;33534;51.028;13.716;2024-03-08T04:36:59;44.38;;;29.90;;
47772;SDS011;33534;51.028;13.716;2024-03-08T04:39:29;45.28;;;29.65;;
47772;SDS011;33534;51.028;13.716;2024-03-08T04:41:59;44.03;;;31.40;;
47772;SDS011;33534;51.028;13.716;2024-03-08T04:44:31;41.65;;;27.58;;
47772;SDS011;33534;51.028;13.716;2024-03-08T04:46:58;43.63;;;29.48;;
47772;SDS011;33534;51.028;13.716;2024-03-08T04:49:25;41.25;;;29.23;;
47772;SDS011;33534;51.028;13.716;2024-03-08T04:51:50;39.20;;;28.42;;
47772;SDS011;33534;51.028;13.716;2024-03-08T04:54:16;44.40;;;29.60;;
47772;SDS011;33534;51.028;13.716;2024-03-08T04:56:42;39.50;;;27.25;;
47772;SDS011;33534;51.028;13.716;2024-03-08T04:59:07;46.25;;;29.70;;
47772;SDS011;33534;51.028;13.716;2024-03-08T05:01:33;43.65;;;28.00;;
47772;SDS011;33534;51.028;13.716;2024-03-08T05:04:03;41.22;;;27.88;;
47772;SDS011;33534;51.028;13.716;2024-03-08T05:06:28;44.08;;;27.25;;
47772;SDS011;33534;51.028;13.716;2024-03-08T05:08:55;38.30;;;27.00;;
47772;SDS011;33534;51.028;13.716;2024-03-08T05:11:21;47.90;;;27.30;;
47772;SDS011;33534;51.028;13.716;2024-03-08T05:13:46;39.78;;;27.52;;
47772;SDS011;33534;51.028;13.716;2024-03-08T05:16:12;40.00;;;25.38;;
47772;SDS011;33534;51.028;13.716;2024-03-08T05:18:40;38.72;;;25.27;;
47772;SDS011;33534;51.028;13.716;2024-03-08T05:21:07;35.38;;;24.85;;
47772;SDS011;33534;51.028;13.716;2024-03-08T05:23:34;38.70;;;26.73;;
47772;SDS011;33534;51.028;13.716;2024-03-08T05:26:00;39.50;;;25.27;;
47772;SDS011;33534;51.028;13.716;2024-03-08T05:28:26;41.60;;;25.10;;
47772;SDS011;33534;51.028;13.716;2024-03-08T05:30:51;40.03;;;25.02;;
47772;SDS011;33534;51.028;13.716;2024-03-08T05:33:17;36.20;;;24.27;;
47772;SDS011;33534;51.028;13.716;2024-03-08T05:35:44;35.60;;;24.30;;
47772;SDS011;33534;51.028;13.716;2024-03-08T05:38:10;41.40;;;24.27;;
47772;SDS011;33534;51.028;13.716;2024-03-08T05:40:37;33.80;;;24.20;;
47772;SDS011;33534;51.028;13.716;2024-03-08T05:43:03;34.72;;;24.40;;
47772;SDS011;33534;51.028;13.716;2024-03-08T05:45:29;33.28;;;24.23;;
47772;SDS011;33534;51.028;13.716;2024-03-08T05:47:54;35.88;;;23.90;;
47772;SDS011;33534;51.028;13.716;2024-03-08T05:50:20;35.08;;;22.85;;
47772;SDS011;33534;51.028;13.716;2024-03-08T05:52:46;31.73;;;21.83;;
47772;SDS011;33534;51.028;13.716;2024-03-08T05:55:12;32.60;;;24.00;;
47772;SDS011;33534;51.028;13.716;2024-03-08T05:57:39;32.40;;;22.73;;
47772;SDS011;33534;51.028;13.716;2024-03-08T06:00:06;43.78;;;24.88;;
47772;SDS011;33534;51.028;13.716;2024-03-08T06:02:32;42.10;;;22.73;;
47772;SDS011;33534;51.028;13.716;2024-03-08T06:04:58;35.47;;;22.48;;
47772;SDS011;33534;51.028;13.716;2024-03-08T06:07:23;39.30;;;23.98;;
47772;SDS011;33534;51.028;13.716;2024-03-08T06:09:49;42.85;;;23.92;;
47772;SDS011;33534;51.028;13.716;2024-03-08T06:12:15;31.40;;;23.40;;
47772;SDS011;33534;51.028;13.716;2024-03-08T06:14:44;26.50;;;22.88;;
47772;SDS011;33534;51.028;13.716;2024-03-08T06:17:11;30.73;;;24.38;;
47772;SDS011;33534;51.028;13.716;2024-03-08T06:19:36;32.38;;;23.27;;
47772;SDS011;33534;51.028;13.716;2024-03-08T06:22:02;29.98;;;23.38;;
47772;SDS011;33534;51.028;13.716;2024-03-08T06:24:31;33.65;;;24.20;;
47772;SDS011;33534;51.028;13.716;2024-03-08T06:26:57;32.95;;;23.90;;
47772;SDS011;33534;51.028;13.716;2024-03-08T06:29:23;32.33;;;23.20;;
47772;SDS011;33534;51.028;13.716;2024-03-08T06:31:49;30.95;;;21.23;;
47772;SDS011;33534;51.028;13.716;2024-03-08T06:34:15;44.72;;;24.92;;
47772;SDS011;33534;51.028;13.716;2024-03-08T06:36:43;38.75;;;24.10;;
47772;SDS011;33534;51.028;13.716;2024-03-08T06:39:09;35.08;;;23.38;;
47772;SDS011;33534;51.028;13.716;2024-03-08T06:41:38;36.22;;;22.13;;
47772;SDS011;33534;51.028;13.716;2024-03-08T06:44:03;30.90;;;21.48;;
47772;SDS011;33534;51.028;13.716;2024-03-08T06:46:29;37.10;;;20.80;;
47772;SDS011;33534;51.028;13.716;2024-03-08T06:48:54;41.25;;;22.08;;
47772;SDS011;33534;51.028;13.716;2024-03-08T06:51:21;31.10;;;21.70;;
47772;SDS011;33534;51.028;13.716;2024-03-08T06:53:46;31.63;;;20.52;;
47772;SDS011;33534;51.028;13.716;2024-03-08T06:56:14;30.52;;;20.58;;
47772;SDS011;33534;51.028;13.716;2024-03-08T06:58:40;34.05;;;20.35;;
47772;SDS011;33534;51.028;13.716;2024-03-08T07:01:05;37.83;;;20.95;;
47772;SDS011;33534;51.028;13.716;2024-03-08T07:03:32;36.92;;;19.90;;
47772;SDS011;33534;51.028;13.716;2024-03-08T07:05:58;32.58;;;20.60;;
47772;SDS011;33534;51.028;13.716;2024-03-08T07:08:24;41.10;;;19.63;;
47772;SDS011;33534;51.028;13.716;2024-03-08T07:10:52;31.05;;;19.10;;
47772;SDS011;33534;51.028;13.716;2024-03-08T07:13:18;32.95;;;18.98;;
47772;SDS011;33534;51.028;13.716;2024-03-08T07:15:44;35.10;;;21.00;;
47772;SDS011;33534;51.028;13.716;2024-03-08T07:18:10;32.83;;;24.58;;
47772;SDS011;33534;51.028;13.716;2024-03-08T07:20:39;33.22;;;23.88;;
47772;SDS011;33534;51.028;13.716;2024-03-08T07:23:05;34.20;;;24.52;;
47772;SDS011;33534;51.028;13.716;2024-03-08T07:25:31;41.13;;;25.92;;
47772;SDS011;33534;51.028;13.716;2024-03-08T07:27:56;33.90;;;25.15;;
47772;SDS011;33534;51.028;13.716;2024-03-08T07:30:24;35.00;;;25.55;;
47772;SDS011;33534;51.028;13.716;2024-03-08T07:33:08;34.42;;;25.15;;
47772;SDS011;33534;51.028;13.716;2024-03-08T07:35:37;37.60;;;24.90;;
47772;SDS011;33534;51.028;13.716;2024-03-08T07:38:06;41.83;;;25.80;;
47772;SDS011;33534;51.028;13.716;2024-03-08T07:40:36;34.70;;;24.75;;
47772;SDS011;33534;51.028;13.716;2024-03-08T07:43:07;34.20;;;24.20;;
47772;SDS011;33534;51.028;13.716;2024-03-08T07:45:33;33.97;;;24.33;;
47772;SDS011;33534;51.028;13.716;2024-03-08T07:47:58;32.47;;;22.92;;
47772;SDS011;33534;51.028;13.716;2024-03-08T07:50:24;32.17;;;21.50;;
47772;SDS011;33534;51.028;13.716;2024-03-08T07:52:50;34.20;;;22.00;;
47772;SDS011;33534;51.028;13.716;2024-03-08T07:55:16;30.35;;;20.85;;
47772;SDS011;33534;51.028;13.716;2024-03-08T07:57:41;36.03;;;20.05;;
47772;SDS011;33534;51.028;13.716;2024-03-08T08:00:07;30.67;;;19.45;;
47772;SDS011;33534;51.028;13.716;2024-03-08T08:02:34;27.90;;;18.40;;
47772;SDS011;33534;51.028;13.716;2024-03-08T08:05:00;30.33;;;17.58;;
47772;SDS011;33534;51.028;13.716;2024-03-08T08:07:27;25.67;;;17.15;;
47772;SDS011;33534;51.028;13.716;2024-03-08T08:09:53;27.15;;;15.50;;
47772;SDS011;33534;51.028;13.716;2024-03-08T08:12:18;33.45;;;14.48;;
47772;SDS011;33534;51.028;13.716;2024-03-08T08:14:44;19.20;;;13.35;;
47772;SDS011;33534;51.028;13.716;2024-03-08T08:17:10;18.95;;;13.45;;
47772;SDS011;33534;51.028;13.716;2024-03-08T08:19:37;19.23;;;12.05;;
47772;SDS011;33534;51.028;13.716;2024-03-08T08:22:03;21.52;;;12.48;;
47772;SDS011;33534;51.028;13.716;2024-03-08T08:24:29;18.60;;;11.55;;
47772;SDS011;33534;51.028;13.716;2024-03-08T08:26:58;17.88;;;12.25;;
47772;SDS011;33534;51.028;13.716;2024-03-08T08:29:24;15.93;;;11.40;;
47772;SDS011;33534;51.028;13.716;2024-03-08T08:31:50;16.05;;;11.65;;
47772;SDS011;33534;51.028;13.716;2024-03-08T08:34:16;14.10;;;11.18;;
47772;SDS011;33534;51.028;13.716;2024-03-08T08:36:44;18.30;;;10.02;;
47772;SDS011;33534;51.028;13.716;2024-03-08T08:39:10;16.60;;;11.27;;
47772;SDS011;33534;51.028;13.716;2024-03-08T08:41:38;15.48;;;10.10;;
47772;SDS011;33534;51.028;13.716;2024-03-08T08:44:07;16.65;;;10.18;;
47772;SDS011;33534;51.028;13.716;2024-03-08T08:46:37;15.65;;;10.90;;
47772;SDS011;33534;51.028;13.716;2024-03-08T08:49:06;12.55;;;9.55;;
47772;SDS011;33534;51.028;13.716;2024-03-08T08:51:35;12.75;;;9.73;;
47772;SDS011;33534;51.028;13.716;2024-03-08T08:54:01;15.25;;;10.15;;
47772;SDS011;33534;51.028;13.716;2024-03-08T08:56:27;12.73;;;10.02;;
47772;SDS011;33534;51.028;13.716;2024-03-08T08:58:53;13.15;;;9.43;;
47772;SDS011;33534;51.028;13.716;2024-03-08T09:01:19;12.55;;;9.55;;
47772;SDS011;33534;51.028;13.716;2024-03-08T09:03:45;13.45;;;9.15;;
47772;SDS011;33534;51.028;13.716;2024-03-08T09:06:15;13.45;;;9.38;;
47772;SDS011;33534;51.028;13.716;2024-03-08T09:08:42;13.73;;;9.45;;
47772;SDS011;33534;51.028;13.716;2024-03-08T09:11:09;13.88;;;9.27;;
47772;SDS011;33534;51.028;13.716;2024-03-08T09:13:35;9.98;;;7.97;;
47772;SDS011;33534;51.028;13.716;2024-03-08T09:16:01;15.32;;;8.68;;
47772;SDS011;33534;51.028;13.716;2024-03-08T09:18:27;12.20;;;8.25;;
47772;SDS011;33534;51.028;13.716;2024-03-08T09:20:54;9.23;;;7.60;;
47772;SDS011;33534;51.028;13.716;2024-03-08T09:23:20;13.93;;;8.38;;
47772;SDS011;33534;51.028;13.716;2024-03-08T09:25:45;10.85;;;8.18;;
47772;SDS011;33534;51.028;13.716;2024-03-08T09:28:11;10.68;;;8.48;;
47772;SDS011;33534;51.028;13.716;2024-03-08T09:30:37;12.52;;;7.85;;
47772;SDS011;33534;51.028;13.716;2024-03-08T09:33:04;11.85;;;7.90;;
47772;SDS011;33534;51.028;13.716;2024-03-08T09:35:30;9.73;;;7.50;;
47772;SDS011;33534;51.028;13.716;2024-03-08T09:37:56;12.55;;;8.30;;
47772;SDS011;33534;51.028;13.716;2024-03-08T09:40:22;9.63;;;7.53;;
47772;SDS011;33534;51.028;13.716;2024-03-08T09:42:50;9.30;;;6.97;;
47772;SDS011;33534;51.028;13.716;2024-03-08T09:45:17;17.00;;;7.97;;
47772;SDS011;33534;51.028;13.716;2024-03-08T09:47:47;8.18;;;7.10;;
47772;SDS011;33534;51.028;13.716;2024-03-08T09:50:14;10.00;;;7.55;;
47772;SDS011;33534;51.028;13.716;2024-03-08T09:52:42;9.13;;;7.13;;
47772;SDS011;33534;51.028;13.716;2024-03-08T09:55:11;10.82;;;7.20;;
47772;SDS011;33534;51.028;13.716;2024-03-08T09:57:37;12.60;;;8.15;;
47772;SDS011;33534;51.028;13.716;2024-03-08T10:00:06;11.85;;;7.88;;
47772;SDS011;33534;51.028;13.716;2024-03-08T10:02:50;11.82;;;7.20;;
47772;SDS011;33534;51.028;13.716;2024-03-08T10:05:18;11.77;;;7.47;;
47772;SDS011;33534;51.028;13.716;2024-03-08T10:07:44;14.25;;;8.32;;
47772;SDS011;33534;51.028;13.716;2024-03-08T10:10:10;9.15;;;7.25;;
47772;SDS011;33534;51.028;13.716;2024-03-08T10:12:37;11.55;;;7.43;;
47772;SDS011;33534;51.028;13.716;2024-03-08T10:15:05;10.70;;;7.15;;
47772;SDS011;33534;51.028;13.716;2024-03-08T10:17:34;10.63;;;7.15;;
47772;SDS011;33534;51.028;13.716;2024-03-08T10:20:00;12.70;;;7.43;;
47772;SDS011;33534;51.028;13.716;2024-03-08T10:22:27;10.32;;;6.93;;
47772;SDS011;33534;51.028;13.716;2024-03-08T10:24:54;9.95;;;6.95;;
47772;SDS011;33534;51.028;13.716;2024-03-08T10:27:20;10.68;;;7.07;;
47772;SDS011;33534;51.028;13.716;2024-03-08T10:29:48;11.13;;;6.75;;
47772;SDS011;33534;51.028;13.716;2024-03-08T10:32:16;10.88;;;7.18;;
47772;SDS011;33534;51.028;13.716;2024-03-08T10:34:42;9.20;;;7.40;;
47772;SDS011;33534;51.028;13.716;2024-03-08T10:37:08;8.93;;;6.75;;
47772;SDS011;33534;51.028;13.716;2024-03-08T10:39:43;9.88;;;7.07;;
47772;SDS011;33534;51.028;13.716;2024-03-08T10:42:16;9.65;;;6.45;;
47772;SDS011;33534;51.028;13.716;2024-03-08T10:44:53;9.75;;;6.72;;
47772;SDS011;33534;51.028;13.716;2024-03-08T10:47:29;9.38;;;7.45;;
47772;SDS011;33534;51.028;13.716;2024-03-08T10:50:12;8.45;;;6.00;;
47772;SDS011;33534;51.028;13.716;2024-03-08T10:52:50;10.95;;;6.70;;
47772;SDS011;33534;51.028;13.716;2024-03-08T10:55:19;8.90;;;6.47;;
47772;SDS011;33534;51.028;13.716;2024-03-08T10:57:46;9.45;;;6.68;;
47772;SDS011;33534;51.028;13.716;2024-03-08T11:00:14;13.80;;;6.80;;
47772;SDS011;33534;51.028;13.716;2024-03-08T11:02:44;12.43;;;6.57;;
47772;SDS011;33534;51.028;13.716;2024-03-08T11:05:11;11.00;;;6.57;;
47772;SDS011;33534;51.028;13.716;2024-03-08T11:07:57;9.48;;;6.63;;
47772;SDS011;33534;51.028;13.716;2024-03-08T11:10:23;10.77;;;6.70;;
47772;SDS011;33534;51.028;13.716;2024-03-08T11:12:49;9.88;;;6.38;;
47772;SDS011;33534;51.028;13.716;2024-03-08T11:15:15;12.27;;;6.53;;
47772;SDS011;33534;51.028;13.716;2024-03-08T11:17:49;14.02;;;6.65;;
47772;SDS011;33534;51.028;13.716;2024-03-08T11:20:16;11.57;;;6.30;;
47772;SDS011;33534;51.028;13.716;2024-03-08T11:28:07;10.05;;;6.13;;
47772;SDS011;33534;51.028;13.716;2024-03-08T11:30:33;9.18;;;6.22;;
47772;SDS011;33534;51.028;13.716;2024-03-08T11:33:02;8.82;;;6.70;;
47772;SDS011;33534;51.028;13.716;2024-03-08T11:35:28;9.45;;;6.63;;
47772;SDS011;33534;51.028;13.716;2024-03-08T11:37:57;11.45;;;6.45;;
47772;SDS011;33534;51.028;13.716;2024-03-08T11:40:25;8.95;;;6.55;;
47772;SDS011;33534;51.028;13.716;2024-03-08T11:42:52;10.00;;;6.03;;
47772;SDS011;33534;51.028;13.716;2024-03-08T11:45:18;6.95;;;5.78;;
47772;SDS011;33534;51.028;13.716;2024-03-08T11:47:46;10.85;;;6.43;;
47772;SDS011;33534;51.028;13.716;2024-03-08T11:50:12;9.30;;;6.47;;
47772;SDS011;33534;51.028;13.716;2024-03-08T11:52:39;7.32;;;5.35;;
47772;SDS011;33534;51.028;13.716;2024-03-08T11:55:05;7.95;;;5.82;;
47772;SDS011;33534;51.028;13.716;2024-03-08T11:57:31;13.43;;;6.15;;
47772;SDS011;33534;51.028;13.716;2024-03-08T11:59:58;7.10;;;5.43;;
47772;SDS011;33534;51.028;13.716;2024-03-08T12:02:32;8.15;;;5.95;;
47772;SDS011;33534;51.028;13.716;2024-03-08T12:05:01;11.57;;;6.38;;
47772;SDS011;33534;51.028;13.716;2024-03-08T12:07:31;7.70;;;5.95;;
47772;SDS011;33534;51.028;13.716;2024-03-08T12:10:20;8.65;;;5.85;;
47772;SDS011;33534;51.028;13.716;2024-03-08T12:12:49;9.23;;;6.03;;
47772;SDS011;33534;51.028;13.716;2024-03-08T12:15:16;8.27;;;6.10;;
47772;SDS011;33534;51.028;13.716;2024-03-08T12:17:43;9.27;;;5.95;;
47772;SDS011;33534;51.028;13.716;2024-03-08T12:20:19;8.13;;;5.47;;
47772;SDS011;33534;51.028;13.716;2024-03-08T12:22:50;7.75;;;5.40;;
47772;SDS011;33534;51.028;13.716;2024-03-08T12:25:21;7.68;;;5.53;;
47772;SDS011;33534;51.028;13.716;2024-03-08T12:27:47;8.32;;;5.45;;
47772;SDS011;33534;51.028;13.716;2024-03-08T12:30:19;7.63;;;5.68;;
47772;SDS011;33534;51.028;13.716;2024-03-08T12:33:07;9.70;;;6.15;;
47772;SDS011;33534;51.028;13.716;2024-03-08T12:35:35;8.18;;;5.03;;
47772;SDS011;33534;51.028;13.716;2024-03-08T12:38:02;9.65;;;5.80;;
47772;SDS011;33534;51.028;13.716;2024-03-08T12:40:28;7.90;;;5.40;;
47772;SDS011;33534;51.028;13.716;2024-03-08T12:42:55;7.25;;;5.45;;
47772;SDS011;33534;51.028;13.716;2024-03-08T12:45:22;14.70;;;5.70;;
47772;SDS011;33534;51.028;13.716;2024-03-08T12:47:49;8.82;;;5.55;;
47772;SDS011;33534;51.028;13.716;2024-03-08T12:50:16;6.82;;;5.60;;
47772;SDS011;33534;51.028;13.716;2024-03-08T12:52:42;11.60;;;6.05;;
47772;SDS011;33534;51.028;13.716;2024-03-08T12:55:08;10.95;;;6.07;;
47772;SDS011;33534;51.028;13.716;2024-03-08T12:57:37;8.25;;;5.30;;
47772;SDS011;33534;51.028;13.716;2024-03-08T13:00:03;9.50;;;5.72;;
47772;SDS011;33534;51.028;13.716;2024-03-08T13:02:29;9.68;;;6.18;;
47772;SDS011;33534;51.028;13.716;2024-03-08T13:04:58;8.55;;;5.88;;
47772;SDS011;33534;51.028;13.716;2024-03-08T13:07:24;11.35;;;5.50;;
47772;SDS011;33534;51.028;13.716;2024-03-08T13:09:54;9.63;;;5.55;;
47772;SDS011;33534;51.028;13.716;2024-03-08T13:12:20;8.30;;;4.93;;
47772;SDS011;33534;51.028;13.716;2024-03-08T13:14:48;7.88;;;5.45;;
47772;SDS011;33534;51.028;13.716;2024-03-08T13:17:15;11.10;;;6.15;;
47772;SDS011;33534;51.028;13.716;2024-03-08T13:19:43;10.15;;;6.05;;
47772;SDS011;33534;51.028;13.716;2024-03-08T13:22:09;9.55;;;5.82;;
47772;SDS011;33534;51.028;13.716;2024-03-08T13:24:41;9.80;;;5.65;;
47772;SDS011;33534;51.028;13.716;2024-03-08T13:27:07;12.52;;;6.40;;
47772;SDS011;33534;51.028;13.716;2024-03-08T13:29:47;16.02;;;6.35;;
47772;SDS011;33534;51.028;13.716;2024-03-08T13:32:13;16.85;;;7.15;;
47772;SDS011;33534;51.028;13.716;2024-03-08T13:34:43;15.27;;;8.50;;
47772;SDS011;33534;51.028;13.716;2024-03-08T13:37:10;15.25;;;8.68;;
47772;SDS011;33534;51.028;13.716;2024-03-08T13:39:36;16.25;;;7.90;;
47772;SDS011;33534;51.028;13.716;2024-03-08T13:42:23;12.77;;;7.78;;
47772;SDS011;33534;51.028;13.716;2024-03-08T13:44:49;16.85;;;7.80;;
47772;SDS011;33534;51.028;13.716;2024-03-08T13:47:15;10.75;;;6.53;;
47772;SDS011;33534;51.028;13.716;2024-03-08T13:49:42;13.02;;;6.85;;
47772;SDS011;33534;51.028;13.716;2024-03-08T13:52:09;19.00;;;8.00;;
47772;SDS011;33534;51.028;13.716;2024-03-08T13:54:35;15.48;;;6.57;;
47772;SDS011;33534;51.028;13.716;2024-03-08T13:57:01;19.52;;;8.13;;
47772;SDS011;33534;51.028;13.716;2024-03-08T13:59:32;12.02;;;6.32;;
47772;SDS011;33534;51.028;13.716;2024-03-08T14:01:58;17.45;;;7.05;;
47772;SDS011;33534;51.028;13.716;2024-03-08T14:04:25;14.80;;;6.95;;
47772;SDS011;33534;51.028;13.716;2024-03-08T14:06:53;17.00;;;7.70;;
47772;SDS011;33534;51.028;13.716;2024-03-08T14:09:24;21.45;;;6.95;;
47772;SDS011;33534;51.028;13.716;2024-03-08T14:11:54;17.75;;;6.90;;
47772;SDS011;33534;51.028;13.716;2024-03-08T14:14:20;17.85;;;7.88;;
47772;SDS011;33534;51.028;13.716;2024-03-08T14:16:48;19.65;;;7.80;;
47772;SDS011;33534;51.028;13.716;2024-03-08T14:19:14;29.30;;;7.85;;
47772;SDS011;33534;51.028;13.716;2024-03-08T14:21:40;21.48;;;7.63;;
47772;SDS011;33534;51.028;13.716;2024-03-08T14:24:07;28.40;;;8.88;;